createdAt,value
2022-10-05T00:52:13.571Z,9.30
2022-10-05T01:53:30.449Z,9.30
2022-10-05T01:59:19.939Z,9.30
2022-10-05T02:11:32.193Z,9.40
2022-10-05T02:42:02.534Z,8.90
2022-10-05T02:47:04.127Z,8.90
2022-10-05T02:57:45.164Z,8.90
2022-10-05T03:03:37.776Z,8.60
2022-10-05T03:08:59.557Z,8.60
2022-10-05T03:20:42.214Z,8.70
2022-10-05T03:31:49.333Z,8.80
2022-10-05T03:36:53.339Z,8.90
2022-10-05T03:41:55.571Z,9.00
2022-10-05T03:47:06.314Z,9.00
2022-10-05T03:52:07.071Z,8.80
2022-10-05T04:03:05.704Z,8.10
2022-10-05T04:08:04.708Z,7.60
2022-10-05T04:13:31.471Z,7.30
2022-10-05T04:18:32.511Z,6.90
2022-10-05T04:23:35.045Z,6.80
2022-10-05T04:28:56.001Z,6.50
2022-10-05T04:33:41.085Z,6.30
2022-10-05T04:44:57.097Z,6.10
2022-10-05T04:50:31.865Z,6.00
2022-10-05T04:56:11.692Z,5.90
2022-10-05T05:02:15.221Z,5.70
2022-10-05T05:07:30.312Z,5.60
2022-10-05T05:19:15.187Z,5.60
2022-10-05T05:24:37.370Z,5.60
2022-10-05T05:30:03.106Z,5.70
2022-10-05T05:41:09.336Z,6.40
2022-10-05T05:46:01.741Z,6.80
2022-10-05T05:51:01.172Z,7.00
2022-10-05T05:55:55.742Z,7.10
2022-10-05T06:01:31.770Z,7.00
2022-10-05T06:07:16.530Z,6.80
2022-10-05T06:12:19.635Z,6.90
2022-10-05T06:17:27.754Z,7.00
2022-10-05T06:22:19.209Z,7.20
2022-10-05T06:27:23.086Z,7.30
2022-10-05T06:32:43.624Z,7.40
2022-10-05T06:38:33.807Z,7.60
2022-10-05T06:44:40.521Z,7.80
2022-10-05T06:50:14.210Z,8.10
2022-10-05T06:56:56.752Z,8.30
2022-10-05T07:01:41.607Z,8.50
2022-10-05T07:06:44.612Z,8.90
2022-10-05T07:12:06.628Z,9.40
2022-10-05T07:17:24.762Z,9.70
2022-10-05T07:22:42.827Z,10.10
2022-10-05T07:27:34.342Z,10.50
2022-10-05T07:32:40.322Z,11.00
2022-10-05T07:38:13.707Z,11.50
2022-10-05T07:43:20.050Z,12.10
2022-10-05T07:48:20.849Z,12.40
2022-10-05T07:59:04.024Z,13.30
2022-10-05T08:04:50.307Z,14.00
2022-10-05T08:10:32.462Z,14.80
2022-10-05T08:15:17.752Z,15.50
2022-10-05T08:20:23.972Z,16.00
2022-10-05T08:25:24.564Z,15.80
2022-10-05T08:30:46.237Z,16.10
2022-10-05T08:36:07.085Z,16.60
2022-10-05T08:50:00.278Z,17.40
2022-10-05T08:55:30.311Z,17.20
2022-10-05T09:07:06.006Z,16.80
2022-10-05T09:12:36.890Z,16.70
2022-10-05T09:24:36.826Z,17.50
2022-10-05T09:30:31.474Z,18.00
2022-10-05T09:36:07.777Z,18.30
2022-10-05T09:41:46.979Z,18.30
2022-10-05T09:54:30.112Z,18.50
2022-10-05T10:00:23.007Z,18.40
2022-10-05T10:06:18.988Z,18.30
2022-10-05T10:11:38.839Z,18.40
2022-10-05T10:31:39.136Z,19.30
2022-10-05T10:44:26.077Z,18.60
2022-10-05T10:50:19.179Z,18.90
2022-10-05T10:55:49.875Z,19.10
2022-10-05T11:01:12.614Z,19.20
2022-10-05T11:06:47.285Z,19.50
2022-10-05T11:12:06.593Z,19.50
2022-10-05T11:23:54.179Z,19.90
2022-10-05T11:55:12.171Z,22.20
2022-10-05T12:00:53.706Z,22.10
2022-10-05T12:13:26.122Z,21.50
2022-10-05T12:19:07.438Z,21.70
2022-10-05T12:24:38.520Z,21.80
2022-10-05T12:29:46.724Z,22.00
2022-10-05T12:47:23.378Z,22.90
2022-10-05T12:52:43.482Z,22.50
2022-10-05T12:58:16.097Z,22.50
2022-10-05T13:03:51.976Z,22.00
2022-10-05T13:10:00.984Z,22.30
2022-10-05T13:15:33.030Z,21.40
2022-10-05T13:20:55.862Z,21.10
2022-10-05T13:25:58.660Z,21.20
2022-10-05T13:31:17.191Z,21.20
2022-10-05T13:37:27.669Z,20.80
2022-10-05T14:26:33.324Z,21.60
2022-10-05T14:31:36.937Z,21.30
2022-10-05T14:36:37.337Z,20.60
2022-10-05T14:42:14.691Z,20.40
2022-10-05T14:47:16.931Z,20.00
2022-10-05T14:52:58.869Z,19.50
2022-10-05T15:10:17.795Z,19.10
2022-10-05T15:15:50.511Z,18.80
2022-10-05T15:20:49.762Z,18.50
2022-10-05T15:25:40.474Z,18.10
2022-10-05T15:30:44.699Z,17.90
2022-10-05T15:36:26.224Z,17.50
2022-10-05T15:41:28.220Z,17.30
2022-10-05T15:46:50.957Z,17.00
2022-10-05T15:52:02.161Z,16.90
2022-10-05T15:57:38.202Z,16.70
2022-10-05T16:03:00.977Z,16.60
2022-10-05T16:08:48.946Z,16.50
2022-10-05T16:19:21.814Z,16.30
2022-10-05T16:29:54.464Z,16.10
2022-10-05T16:35:17.261Z,15.90
2022-10-05T16:40:22.779Z,15.70
2022-10-05T16:45:31.317Z,15.70
2022-10-05T16:50:50.543Z,15.70
2022-10-05T16:56:05.146Z,15.50
2022-10-05T17:01:09.532Z,15.20
2022-10-05T17:06:27.296Z,15.10
2022-10-05T17:11:38.763Z,14.80
2022-10-05T17:16:50.624Z,14.50
2022-10-05T17:22:10.387Z,14.20
2022-10-05T17:27:54.505Z,14.00
2022-10-05T17:33:56.770Z,13.90
2022-10-05T17:39:38.312Z,13.70
2022-10-05T17:44:26.595Z,13.40
2022-10-05T17:49:47.137Z,13.20
2022-10-05T17:55:06.796Z,13.20
2022-10-05T18:00:07.999Z,13.10
2022-10-05T18:12:08.067Z,12.90
2022-10-05T18:17:40.713Z,12.90
2022-10-05T18:35:37.170Z,12.90
2022-10-05T18:41:56.074Z,12.70
2022-10-05T18:47:55.268Z,12.80
2022-10-05T18:54:02.893Z,13.20
2022-10-05T19:12:41.882Z,13.80
2022-10-05T19:25:23.914Z,14.10
2022-10-05T19:36:53.237Z,14.30
2022-10-05T19:43:01.701Z,14.40
2022-10-05T20:00:25.265Z,14.50
2022-10-05T20:05:27.301Z,14.50
2022-10-05T20:10:33.662Z,14.60
2022-10-05T20:16:11.097Z,14.70
2022-10-05T20:22:18.249Z,14.70
2022-10-05T20:27:55.558Z,14.70
2022-10-05T20:33:22.711Z,14.70
2022-10-05T20:39:20.349Z,14.80
2022-10-05T20:44:03.783Z,14.90
2022-10-05T20:49:37.910Z,14.90
2022-10-05T20:54:30.895Z,14.80
2022-10-05T20:59:20.397Z,14.90
2022-10-05T21:04:56.570Z,14.90
2022-10-05T21:15:36.105Z,14.90
2022-10-05T21:20:53.298Z,14.90
2022-10-05T21:25:40.762Z,14.90
2022-10-05T21:30:43.089Z,14.80
2022-10-05T21:35:36.810Z,14.90
2022-10-05T21:40:52.848Z,14.90
2022-10-05T21:46:19.555Z,14.80
2022-10-05T21:57:06.871Z,14.90
2022-10-05T22:18:29.820Z,15.60
2022-10-05T22:23:39.346Z,15.90
2022-10-05T22:28:23.130Z,16.20
2022-10-05T22:33:44.820Z,16.50
2022-10-05T22:38:44.350Z,16.50
2022-10-05T22:43:35.576Z,16.30
2022-10-05T22:54:43.697Z,16.20
2022-10-05T22:59:34.248Z,16.10
2022-10-05T23:09:59.311Z,16.00
2022-10-05T23:14:47.076Z,15.90
2022-10-05T23:19:37.434Z,15.90
2022-10-05T23:24:43.768Z,15.90
2022-10-05T23:29:47.126Z,15.90
2022-10-05T23:34:41.072Z,16.10
2022-10-05T23:39:33.575Z,16.10
2022-10-05T23:44:51.667Z,16.30
2022-10-05T23:49:41.237Z,16.20
